PWSweather.com
Personal Weather Stations
Station Observations
N3SME
Betz Creek, Wilmington Island, Savannah, GA 31410

Betz Creek, Wilmington IslandSavannah, GA 31410

Lat: 32.023021, Lon: -80.959452

Elevation: 15

Station Type: Ambient

High Low Average
Temperature 80.1°F26.7°F 71.9°F22.2°F 75.9°F24.4°F
Dew Point 79.1°F26.2°F 70.5°F21.4°F 74.6°F23.7°F
Winds 6.9 mph E11.1 mph E Calm Calm 1.6 mph 2.6 mph
Wind Gusts 33.3 mph53.6 mph 1.8 mph2.9 mph 11.9 mph19.2 mph
Humidity 100% 75% 96%
Pressure 30.09 in1019.00 in 30.00 in1015.90 in -
Precipitation 5.53 in140.50 in - -
Hour Temp Dew Point Humidity Winds Wind Gusts Pressure Precip Precip Rate Daily Precip Total
12:00 AM 77.8°F25.4°C 73.0°F22.8°C 85% 1.8 mph E2.9 kmh E 10.5 mph16.9 kmh 30.08 in1018.6 mb 0.00 in0.0 mm 0.00 in0.0 mm 0.00 in0.0 mm
12:15 AM 78.3°F25.7°C 73.5°F23.1°C 85% 1.8 mph E2.9 kmh E 10.5 mph16.9 kmh 30.08 in1018.6 mb 0.00 in0.0 mm 0.00 in0.0 mm 0.00 in0.0 mm
12:30 AM 78.2°F25.7°C 73.3°F22.9°C 85% 1.8 mph NE2.9 kmh NE 6.9 mph11.1 kmh 30.08 in1018.6 mb 0.00 in0.0 mm 0.00 in0.0 mm 0.00 in0.0 mm
12:45 AM 78.0°F25.6°C 73.5°F23.1°C 86% 1.8 mph NE2.9 kmh NE 12.3 mph19.8 kmh 30.07 in1018.3 mb 0.00 in0.0 mm 0.00 in0.0 mm 0.00 in0.0 mm
01:00 AM 78.0°F25.6°C 73.9°F23.3°C 87% Calm Calm 6.9 mph11.1 kmh 30.07 in1018.3 mb 0.00 in0.0 mm 0.00 in0.0 mm 0.00 in0.0 mm
01:15 AM 77.8°F25.4°C 74.0°F23.3°C 88% Calm Calm 8.7 mph14.0 kmh 30.06 in1017.9 mb 0.00 in0.0 mm 0.00 in0.0 mm 0.00 in0.0 mm
01:30 AM 77.8°F25.4°C 74.4°F23.6°C 89% Calm Calm 3.6 mph5.8 kmh 30.06 in1017.9 mb 0.00 in0.0 mm 0.00 in0.0 mm 0.00 in0.0 mm
01:45 AM 78.0°F25.6°C 75.2°F24.0°C 91% Calm Calm 5.1 mph8.2 kmh 30.06 in1017.9 mb 0.00 in0.0 mm 0.00 in0.0 mm 0.00 in0.0 mm
02:00 AM 77.8°F25.4°C 75.0°F23.9°C 91% Calm Calm 3.6 mph5.8 kmh 30.05 in1017.6 mb 0.00 in0.0 mm 0.00 in0.0 mm 0.00 in0.0 mm
02:15 AM 77.6°F25.3°C 74.8°F23.8°C 91% Calm Calm 1.8 mph2.9 kmh 30.05 in1017.6 mb 0.00 in0.0 mm 0.00 in0.0 mm 0.00 in0.0 mm
02:30 AM 77.4°F25.2°C 75.0°F23.9°C 92% Calm Calm 3.6 mph5.8 kmh 30.04 in1017.3 mb 0.00 in0.0 mm 0.00 in0.0 mm 0.00 in0.0 mm
02:45 AM 77.3°F25.2°C 74.8°F23.8°C 92% Calm Calm 3.6 mph5.8 kmh 30.04 in1017.3 mb 0.00 in0.0 mm 0.00 in0.0 mm 0.00 in0.0 mm
03:00 AM 76.2°F24.6°C 70.7°F21.5°C 83% Calm Calm 26.2 mph42.2 kmh 30.05 in1017.6 mb 0.01 in0.3 mm 0.01 in0.3 mm 0.01 in0.3 mm
03:15 AM 75.3°F24.1°C 70.5°F21.4°C 85% Calm Calm 5.1 mph8.2 kmh 30.04 in1017.3 mb 0.02 in0.5 mm 0.04 in1.0 mm 0.02 in0.5 mm
03:30 AM 74.6°F23.7°C 70.8°F21.6°C 88% Calm Calm 1.8 mph2.9 kmh 30.03 in1016.9 mb 0.02 in0.5 mm 0.00 in0.0 mm 0.02 in0.5 mm
03:45 AM 74.2°F23.4°C 71.4°F21.9°C 91% Calm Calm 3.6 mph5.8 kmh 30.02 in1016.6 mb 0.02 in0.5 mm 0.00 in0.0 mm 0.02 in0.5 mm
04:00 AM 74.0°F23.3°C 72.5°F22.5°C 95% Calm Calm 3.6 mph5.8 kmh 30.03 in1016.9 mb 0.01 in0.3 mm 0.00 in0.0 mm 0.02 in0.5 mm
04:15 AM 73.8°F23.2°C 73.0°F22.8°C 97% 3.6 mph NW5.8 kmh NW 8.7 mph14.0 kmh 30.03 in1016.9 mb 0.00 in0.0 mm 0.00 in0.0 mm 0.02 in0.5 mm
04:30 AM 73.7°F23.2°C 73.7°F23.2°C 100% Calm Calm 5.1 mph8.2 kmh 30.03 in1016.9 mb 0.00 in0.0 mm 0.00 in0.0 mm 0.02 in0.5 mm
04:45 AM 73.7°F23.2°C 73.7°F23.2°C 100% 6.9 mph NW11.1 kmh NW 14.1 mph22.7 kmh 30.05 in1017.6 mb 0.00 in0.0 mm 0.00 in0.0 mm 0.02 in0.5 mm
05:00 AM 72.8°F22.7°C 72.8°F22.7°C 100% 3.6 mph W5.8 kmh W 33.3 mph53.6 kmh 30.04 in1017.3 mb 0.26 in6.6 mm 0.35 in8.9 mm 0.28 in7.1 mm
05:15 AM 72.0°F22.2°C 72.1°F22.3°C 100% 1.8 mph NW2.9 kmh NW 12.3 mph19.8 kmh 30.03 in1016.9 mb 0.26 in6.6 mm 0.00 in0.0 mm 0.28 in7.1 mm
05:30 AM 72.0°F22.2°C 72.1°F22.3°C 100% Calm Calm 6.9 mph11.1 kmh 30.03 in1016.9 mb 0.26 in6.6 mm 0.00 in0.0 mm 0.28 in7.1 mm
05:45 AM 71.9°F22.2°C 71.9°F22.2°C 100% 3.6 mph NE5.8 kmh NE 10.5 mph16.9 kmh 30.04 in1017.3 mb 0.26 in6.6 mm 0.00 in0.0 mm 0.28 in7.1 mm
06:00 AM 72.0°F22.2°C 72.1°F22.3°C 100% Calm Calm 5.1 mph8.2 kmh 30.04 in1017.3 mb 0.00 in0.0 mm 0.00 in0.0 mm 0.28 in7.1 mm
06:15 AM 72.0°F22.2°C 72.1°F22.3°C 100% Calm Calm 5.1 mph8.2 kmh 30.05 in1017.6 mb 0.00 in0.0 mm 0.00 in0.0 mm 0.28 in7.1 mm
06:30 AM 72.0°F22.2°C 72.1°F22.3°C 100% Calm Calm 5.1 mph8.2 kmh 30.05 in1017.6 mb 0.00 in0.0 mm 0.00 in0.0 mm 0.28 in7.1 mm
06:45 AM 72.2°F22.3°C 72.3°F22.4°C 100% Calm Calm 5.1 mph8.2 kmh 30.05 in1017.6 mb 0.00 in0.0 mm 0.00 in0.0 mm 0.28 in7.1 mm
07:00 AM 72.6°F22.6°C 72.6°F22.6°C 100% Calm Calm 8.7 mph14.0 kmh 30.05 in1017.6 mb 0.00 in0.0 mm 0.00 in0.0 mm 0.28 in7.1 mm
07:15 AM 72.8°F22.7°C 72.8°F22.7°C 100% Calm Calm 5.1 mph8.2 kmh 30.04 in1017.3 mb 0.00 in0.0 mm 0.00 in0.0 mm 0.28 in7.1 mm
07:30 AM 73.1°F22.8°C 73.2°F22.9°C 100% Calm Calm 6.9 mph11.1 kmh 30.04 in1017.3 mb 0.00 in0.0 mm 0.00 in0.0 mm 0.28 in7.1 mm
07:45 AM 73.3°F22.9°C 73.3°F22.9°C 100% 3.6 mph NE5.8 kmh NE 8.7 mph14.0 kmh 30.05 in1017.6 mb 0.00 in0.0 mm 0.00 in0.0 mm 0.28 in7.1 mm
08:00 AM 73.5°F23.1°C 73.5°F23.1°C 100% Calm Calm 5.1 mph8.2 kmh 30.05 in1017.6 mb 0.00 in0.0 mm 0.00 in0.0 mm 0.28 in7.1 mm
08:15 AM 74.2°F23.4°C 74.3°F23.5°C 100% Calm Calm 1.8 mph2.9 kmh 30.05 in1017.6 mb 0.00 in0.0 mm 0.00 in0.0 mm 0.28 in7.1 mm
08:30 AM 74.6°F23.7°C 74.6°F23.7°C 100% Calm Calm 5.1 mph8.2 kmh 30.05 in1017.6 mb 0.00 in0.0 mm 0.00 in0.0 mm 0.28 in7.1 mm
08:45 AM 74.9°F23.8°C 75.0°F23.9°C 100% Calm Calm 8.7 mph14.0 kmh 30.05 in1017.6 mb 0.00 in0.0 mm 0.00 in0.0 mm 0.28 in7.1 mm
09:00 AM 75.5°F24.2°C 75.5°F24.2°C 100% Calm Calm 6.9 mph11.1 kmh 30.06 in1017.9 mb 0.00 in0.0 mm 0.00 in0.0 mm 0.28 in7.1 mm
09:15 AM 76.0°F24.4°C 76.1°F24.5°C 100% Calm Calm 5.1 mph8.2 kmh 30.06 in1017.9 mb 0.00 in0.0 mm 0.00 in0.0 mm 0.28 in7.1 mm
09:30 AM 76.5°F24.7°C 76.6°F24.8°C 100% Calm Calm 8.7 mph14.0 kmh 30.06 in1017.9 mb 0.00 in0.0 mm 0.00 in0.0 mm 0.28 in7.1 mm
09:45 AM 77.3°F25.2°C 77.3°F25.2°C 100% Calm Calm 8.7 mph14.0 kmh 30.06 in1017.9 mb 0.00 in0.0 mm 0.00 in0.0 mm 0.28 in7.1 mm
10:00 AM 77.6°F25.3°C 77.7°F25.4°C 100% Calm Calm 8.7 mph14.0 kmh 30.06 in1017.9 mb 0.01 in0.3 mm 0.01 in0.3 mm 0.30 in7.6 mm
10:15 AM 77.6°F25.3°C 77.7°F25.4°C 100% Calm Calm 6.9 mph11.1 kmh 30.06 in1017.9 mb 0.01 in0.3 mm 0.00 in0.0 mm 0.30 in7.6 mm
10:30 AM 77.4°F25.2°C 77.5°F25.3°C 100% Calm Calm 8.7 mph14.0 kmh 30.08 in1018.6 mb 0.01 in0.3 mm 0.00 in0.0 mm 0.30 in7.6 mm
10:45 AM 77.6°F25.3°C 77.7°F25.4°C 100% 3.6 mph E5.8 kmh E 12.3 mph19.8 kmh 30.09 in1019.0 mb 0.01 in0.3 mm 0.00 in0.0 mm 0.30 in7.6 mm
11:00 AM 77.8°F25.4°C 77.9°F25.5°C 100% 3.6 mph E5.8 kmh E 17.4 mph28.0 kmh 30.08 in1018.6 mb 0.00 in0.0 mm 0.00 in0.0 mm 0.30 in7.6 mm
11:15 AM 79.1°F26.2°C 79.1°F26.2°C 100% 1.8 mph ENE2.9 kmh ENE 8.7 mph14.0 kmh 30.07 in1018.3 mb 0.00 in0.0 mm 0.00 in0.0 mm 0.30 in7.6 mm
11:30 AM 80.1°F26.7°C 75.6°F24.2°C 86% 3.6 mph E5.8 kmh E 15.7 mph25.3 kmh 30.07 in1018.3 mb 0.00 in0.0 mm 0.00 in0.0 mm 0.30 in7.6 mm
11:45 AM 79.8°F26.6°C 72.4°F22.4°C 78% Calm Calm 10.5 mph16.9 kmh 30.07 in1018.3 mb 0.00 in0.0 mm 0.00 in0.0 mm 0.30 in7.6 mm
12:00 PM 79.4°F26.3°C 71.6°F22.0°C 77% Calm Calm 10.5 mph16.9 kmh 30.07 in1018.3 mb 0.00 in0.0 mm 0.00 in0.0 mm 0.30 in7.6 mm
12:15 PM 79.4°F26.3°C 70.9°F21.6°C 75% 1.8 mph ENE2.9 kmh ENE 17.4 mph28.0 kmh 30.07 in1018.3 mb 0.00 in0.0 mm 0.00 in0.0 mm 0.30 in7.6 mm
12:30 PM 79.4°F26.3°C 70.9°F21.6°C 75% Calm Calm 15.7 mph25.3 kmh 30.08 in1018.6 mb 0.00 in0.0 mm 0.00 in0.0 mm 0.30 in7.6 mm
12:45 PM 79.1°F26.2°C 71.3°F21.8°C 77% 1.8 mph E2.9 kmh E 8.7 mph14.0 kmh 30.08 in1018.6 mb 0.00 in0.0 mm 0.00 in0.0 mm 0.30 in7.6 mm
01:00 PM 78.5°F25.8°C 71.1°F21.7°C 78% 1.8 mph ENE2.9 kmh ENE 8.7 mph14.0 kmh 30.08 in1018.6 mb 0.00 in0.0 mm 0.00 in0.0 mm 0.30 in7.6 mm
01:15 PM 78.5°F25.8°C 70.8°F21.6°C 77% Calm Calm 8.7 mph14.0 kmh 30.06 in1017.9 mb 0.00 in0.0 mm 0.00 in0.0 mm 0.30 in7.6 mm
01:30 PM 77.4°F25.2°C 71.6°F22.0°C 82% Calm Calm 3.6 mph5.8 kmh 30.06 in1017.9 mb 0.02 in0.5 mm 0.08 in2.0 mm 0.32 in8.1 mm
01:45 PM 77.1°F25.1°C 73.0°F22.8°C 87% Calm Calm 1.8 mph2.9 kmh 30.07 in1018.3 mb 0.08 in2.0 mm 0.24 in6.1 mm 0.38 in9.7 mm
02:00 PM 76.4°F24.7°C 75.2°F24.0°C 96% 3.6 mph E5.8 kmh E 15.7 mph25.3 kmh 30.08 in1018.6 mb 0.17 in4.3 mm 0.12 in3.0 mm 0.46 in11.7 mm
02:15 PM 75.5°F24.2°C 75.5°F24.2°C 100% Calm Calm 17.4 mph28.0 kmh 30.09 in1019.0 mb 0.20 in5.1 mm 0.12 in3.0 mm 0.50 in12.7 mm
02:30 PM 74.9°F23.8°C 75.0°F23.9°C 100% Calm Calm 5.1 mph8.2 kmh 30.09 in1019.0 mb 0.30 in7.6 mm 0.40 in10.2 mm 0.61 in15.5 mm
02:45 PM 74.9°F23.8°C 75.0°F23.9°C 100% Calm Calm 12.3 mph19.8 kmh 30.09 in1019.0 mb 0.28 in7.1 mm 0.00 in0.0 mm 0.67 in17.0 mm
03:00 PM 75.1°F23.9°C 75.2°F24.0°C 100% Calm Calm 10.5 mph16.9 kmh 30.07 in1018.3 mb 0.28 in7.1 mm 0.00 in0.0 mm 0.74 in18.8 mm
03:15 PM 75.3°F24.1°C 75.3°F24.1°C 100% Calm Calm 5.1 mph8.2 kmh 30.07 in1018.3 mb 0.28 in7.1 mm 0.00 in0.0 mm 0.79 in20.1 mm
03:30 PM 75.5°F24.2°C 75.5°F24.2°C 100% 1.8 mph ESE2.9 kmh ESE 10.5 mph16.9 kmh 30.06 in1017.9 mb 0.22 in5.6 mm 0.00 in0.0 mm 0.84 in21.3 mm
03:45 PM 75.1°F23.9°C 75.2°F24.0°C 100% 3.6 mph E5.8 kmh E 17.4 mph28.0 kmh 30.03 in1016.9 mb 0.21 in5.3 mm 0.00 in0.0 mm 0.89 in22.6 mm
04:00 PM 75.1°F23.9°C 75.2°F24.0°C 100% 5.1 mph E8.2 kmh E 24.6 mph39.6 kmh 30.04 in1017.3 mb 0.17 in4.3 mm 0.00 in0.0 mm 0.91 in23.1 mm
04:15 PM 75.8°F24.3°C 75.9°F24.4°C 100% 6.9 mph E11.1 kmh E 28.0 mph45.1 kmh 30.04 in1017.3 mb 0.14 in3.6 mm 0.00 in0.0 mm 0.93 in23.6 mm
04:30 PM 76.2°F24.6°C 76.2°F24.6°C 100% 3.6 mph E5.8 kmh E 17.4 mph28.0 kmh 30.03 in1016.9 mb 0.09 in2.3 mm 0.00 in0.0 mm 0.93 in23.6 mm
04:45 PM 76.4°F24.7°C 76.4°F24.7°C 100% 3.6 mph E5.8 kmh E 24.6 mph39.6 kmh 30.03 in1016.9 mb 0.05 in1.3 mm 0.00 in0.0 mm 0.93 in23.6 mm
05:00 PM 76.0°F24.4°C 76.1°F24.5°C 100% 3.6 mph E5.8 kmh E 17.4 mph28.0 kmh 30.03 in1016.9 mb 0.02 in0.5 mm 0.00 in0.0 mm 0.93 in23.6 mm
05:15 PM 76.2°F24.6°C 76.2°F24.6°C 100% 5.1 mph ESE8.2 kmh ESE 19.2 mph30.9 kmh 30.02 in1016.6 mb 0.00 in0.0 mm 0.00 in0.0 mm 0.93 in23.6 mm
05:30 PM 76.0°F24.4°C 76.1°F24.5°C 100% Calm Calm 14.1 mph22.7 kmh 30.02 in1016.6 mb 0.01 in0.3 mm 0.04 in1.0 mm 0.94 in23.9 mm
05:45 PM 75.5°F24.2°C 75.5°F24.2°C 100% 5.1 mph SE8.2 kmh SE 22.8 mph36.7 kmh 30.02 in1016.6 mb 0.13 in3.3 mm 0.48 in12.2 mm 1.06 in26.9 mm
06:00 PM 75.3°F24.1°C 75.3°F24.1°C 100% 3.6 mph E5.8 kmh E 21.0 mph33.8 kmh 30.02 in1016.6 mb 0.13 in3.3 mm 0.00 in0.0 mm 1.06 in26.9 mm
06:15 PM 75.3°F24.1°C 75.3°F24.1°C 100% 3.6 mph E5.8 kmh E 17.4 mph28.0 kmh 30.03 in1016.9 mb 0.15 in3.8 mm 0.08 in2.0 mm 1.09 in27.7 mm
06:30 PM 75.6°F24.2°C 75.7°F24.3°C 100% 1.8 mph E2.9 kmh E 24.6 mph39.6 kmh 30.03 in1016.9 mb 0.17 in4.3 mm 0.08 in2.0 mm 1.11 in28.2 mm
06:45 PM 76.4°F24.7°C 76.4°F24.7°C 100% 5.1 mph E8.2 kmh E 19.2 mph30.9 kmh 30.02 in1016.6 mb 0.20 in5.1 mm 0.12 in3.0 mm 1.26 in32.0 mm
07:00 PM 75.8°F24.3°C 75.9°F24.4°C 100% 6.9 mph ESE11.1 kmh ESE 24.6 mph39.6 kmh 30.02 in1016.6 mb 0.26 in6.6 mm 0.08 in2.0 mm 1.32 in33.5 mm
07:15 PM 75.6°F24.2°C 75.7°F24.3°C 100% 1.8 mph ENE2.9 kmh ENE 24.6 mph39.6 kmh 30.02 in1016.6 mb 0.25 in6.4 mm 0.00 in0.0 mm 1.33 in33.8 mm
07:30 PM 75.8°F24.3°C 75.9°F24.4°C 100% 3.6 mph SE5.8 kmh SE 26.2 mph42.2 kmh 30.02 in1016.6 mb 0.21 in5.3 mm 0.00 in0.0 mm 1.35 in34.3 mm
07:45 PM 76.0°F24.4°C 76.1°F24.5°C 100% 1.8 mph SE2.9 kmh SE 24.6 mph39.6 kmh 30.03 in1016.9 mb 0.08 in2.0 mm 0.00 in0.0 mm 1.35 in34.3 mm
08:00 PM 75.5°F24.2°C 75.5°F24.2°C 100% 5.1 mph SE8.2 kmh SE 26.2 mph42.2 kmh 30.03 in1016.9 mb 0.02 in0.5 mm 0.00 in0.0 mm 1.35 in34.3 mm
08:15 PM 75.1°F23.9°C 75.2°F24.0°C 100% 1.8 mph E2.9 kmh E 19.2 mph30.9 kmh 30.02 in1016.6 mb 0.01 in0.3 mm 0.00 in0.0 mm 1.35 in34.3 mm
08:30 PM 76.0°F24.4°C 76.1°F24.5°C 100% Calm Calm 21.0 mph33.8 kmh 30.01 in1016.3 mb 0.01 in0.3 mm 0.00 in0.0 mm 1.36 in34.5 mm
08:45 PM 75.8°F24.3°C 75.9°F24.4°C 100% 3.6 mph ESE5.8 kmh ESE 22.8 mph36.7 kmh 30.00 in1015.9 mb 0.02 in0.5 mm 0.04 in1.0 mm 1.37 in34.8 mm
09:00 PM 76.0°F24.4°C 76.1°F24.5°C 100% 1.8 mph E2.9 kmh E 15.7 mph25.3 kmh 30.01 in1016.3 mb 0.04 in1.0 mm 0.03 in0.8 mm 1.38 in35.1 mm
09:15 PM 75.6°F24.2°C 75.7°F24.3°C 100% 6.9 mph SW11.1 kmh SW 15.7 mph25.3 kmh 30.01 in1016.3 mb 0.04 in1.0 mm 0.00 in0.0 mm 1.38 in35.1 mm
09:30 PM 76.0°F24.4°C 76.1°F24.5°C 100% 3.6 mph S5.8 kmh S 12.3 mph19.8 kmh 30.01 in1016.3 mb 0.05 in1.3 mm 0.04 in1.0 mm 1.41 in35.8 mm
09:45 PM 76.2°F24.6°C 76.2°F24.6°C 100% 3.6 mph WNW5.8 kmh WNW 12.3 mph19.8 kmh 30.02 in1016.6 mb 0.04 in1.0 mm 0.00 in0.0 mm 1.41 in35.8 mm
10:00 PM 76.2°F24.6°C 76.2°F24.6°C 100% 1.8 mph SW2.9 kmh SW 19.2 mph30.9 kmh 30.02 in1016.6 mb 0.02 in0.5 mm 0.00 in0.0 mm 1.41 in35.8 mm
10:15 PM 76.2°F24.6°C 76.2°F24.6°C 100% 1.8 mph SSW2.9 kmh SSW 12.3 mph19.8 kmh 30.01 in1016.3 mb 0.02 in0.5 mm 0.00 in0.0 mm 1.41 in35.8 mm
10:30 PM 76.2°F24.6°C 76.2°F24.6°C 100% 1.8 mph WSW2.9 kmh WSW 12.3 mph19.8 kmh 30.01 in1016.3 mb 0.00 in0.0 mm 0.00 in0.0 mm 1.41 in35.8 mm
10:45 PM 76.5°F24.7°C 76.6°F24.8°C 100% 1.8 mph SW2.9 kmh SW 10.5 mph16.9 kmh 30.02 in1016.6 mb 0.00 in0.0 mm 0.00 in0.0 mm 1.41 in35.8 mm
11:00 PM 77.4°F25.2°C 77.5°F25.3°C 100% Calm Calm 6.9 mph11.1 kmh 30.02 in1016.6 mb 0.00 in0.0 mm 0.00 in0.0 mm 1.41 in35.8 mm
11:15 PM 76.5°F24.7°C 76.6°F24.8°C 100% Calm Calm 8.7 mph14.0 kmh 30.01 in1016.3 mb 0.00 in0.0 mm 0.00 in0.0 mm 1.41 in35.8 mm
11:30 PM 76.7°F24.8°C 76.8°F24.9°C 100% Calm Calm 5.1 mph8.2 kmh 30.01 in1016.3 mb 0.00 in0.0 mm 0.00 in0.0 mm 1.41 in35.8 mm
11:45 PM 76.5°F24.7°C 76.6°F24.8°C 100% Calm Calm 3.6 mph5.8 kmh 30.01 in1016.3 mb 0.00 in0.0 mm 0.00 in0.0 mm 1.41 in35.8 mm